sensor_id;sensor_type;location;lat;lon;timestamp;temperature;humidity
18191;DHT22;47004;51.366;12.348;2023-02-22T00:01:44;8.60;99.90
18191;DHT22;47004;51.366;12.348;2023-02-22T00:03:50;8.60;99.90
18191;DHT22;47004;51.366;12.348;2023-02-22T00:05:55;8.50;99.90
18191;DHT22;47004;51.366;12.348;2023-02-22T00:07:57;8.50;99.90
18191;DHT22;47004;51.366;12.348;2023-02-22T00:10:00;8.50;99.90
18191;DHT22;47004;51.366;12.348;2023-02-22T00:12:02;8.50;99.90
18191;DHT22;47004;51.366;12.348;2023-02-22T00:14:05;8.40;99.90
18191;DHT22;47004;51.366;12.348;2023-02-22T00:16:07;8.40;99.90
18191;DHT22;47004;51.366;12.348;2023-02-22T00:18:15;8.30;99.90
18191;DHT22;47004;51.366;12.348;2023-02-22T00:20:17;8.30;99.90
18191;DHT22;47004;51.366;12.348;2023-02-22T00:22:19;8.30;99.90
18191;DHT22;47004;51.366;12.348;2023-02-22T00:24:21;8.30;99.90
18191;DHT22;47004;51.366;12.348;2023-02-22T00:26:23;8.30;99.90
18191;DHT22;47004;51.366;12.348;2023-02-22T00:28:25;8.20;99.90
18191;DHT22;47004;51.366;12.348;2023-02-22T00:30:29;8.20;99.90
18191;DHT22;47004;51.366;12.348;2023-02-22T00:32:31;8.20;99.90
18191;DHT22;47004;51.366;12.348;2023-02-22T00:34:33;8.10;99.90
18191;DHT22;47004;51.366;12.348;2023-02-22T00:36:35;8.10;99.90
18191;DHT22;47004;51.366;12.348;2023-02-22T00:38:38;8.10;99.90
18191;DHT22;47004;51.366;12.348;2023-02-22T00:40:40;8.10;99.90
18191;DHT22;47004;51.366;12.348;2023-02-22T00:42:42;8.10;99.90
18191;DHT22;47004;51.366;12.348;2023-02-22T00:44:45;8.00;99.90
18191;DHT22;47004;51.366;12.348;2023-02-22T00:46:49;8.00;99.90
18191;DHT22;47004;51.366;12.348;2023-02-22T00:48:51;8.00;99.90
18191;DHT22;47004;51.366;12.348;2023-02-22T00:50:54;7.90;99.90
18191;DHT22;47004;51.366;12.348;2023-02-22T00:52:58;7.90;99.90
18191;DHT22;47004;51.366;12.348;2023-02-22T00:55:00;7.90;99.90
18191;DHT22;47004;51.366;12.348;2023-02-22T00:57:02;7.90;99.90
18191;DHT22;47004;51.366;12.348;2023-02-22T00:59:04;7.90;99.90
18191;DHT22;47004;51.366;12.348;2023-02-22T01:01:06;7.90;99.90
18191;DHT22;47004;51.366;12.348;2023-02-22T01:03:12;7.90;99.90
18191;DHT22;47004;51.366;12.348;2023-02-22T01:05:17;7.80;99.90
18191;DHT22;47004;51.366;12.348;2023-02-22T01:07:19;7.90;99.90
18191;DHT22;47004;51.366;12.348;2023-02-22T01:09:21;7.90;99.90
18191;DHT22;47004;51.366;12.348;2023-02-22T01:11:23;7.90;99.90
18191;DHT22;47004;51.366;12.348;2023-02-22T01:13:25;7.90;99.90
18191;DHT22;47004;51.366;12.348;2023-02-22T01:15:29;7.90;99.90
18191;DHT22;47004;51.366;12.348;2023-02-22T01:17:31;7.90;99.90
18191;DHT22;47004;51.366;12.348;2023-02-22T01:19:34;7.90;99.90
18191;DHT22;47004;51.366;12.348;2023-02-22T01:21:36;7.90;99.90
18191;DHT22;47004;51.366;12.348;2023-02-22T01:23:38;7.90;99.90
18191;DHT22;47004;51.366;12.348;2023-02-22T01:25:40;7.90;99.90
18191;DHT22;47004;51.366;12.348;2023-02-22T01:27:43;7.90;99.90
18191;DHT22;47004;51.366;12.348;2023-02-22T01:29:47;7.90;99.90
18191;DHT22;47004;51.366;12.348;2023-02-22T01:31:51;7.90;99.90
18191;DHT22;47004;51.366;12.348;2023-02-22T01:33:54;7.90;99.90
18191;DHT22;47004;51.366;12.348;2023-02-22T01:35:57;7.80;99.90
18191;DHT22;47004;51.366;12.348;2023-02-22T01:37:59;7.90;99.90
18191;DHT22;47004;51.366;12.348;2023-02-22T01:40:03;7.90;99.90
18191;DHT22;47004;51.366;12.348;2023-02-22T01:42:06;7.80;99.90
18191;DHT22;47004;51.366;12.348;2023-02-22T01:44:25;7.90;99.90
18191;DHT22;47004;51.366;12.348;2023-02-22T01:46:27;7.90;99.90
18191;DHT22;47004;51.366;12.348;2023-02-22T01:48:33;7.80;99.90
18191;DHT22;47004;51.366;12.348;2023-02-22T01:50:39;7.80;99.90
18191;DHT22;47004;51.366;12.348;2023-02-22T01:52:42;7.80;99.90
18191;DHT22;47004;51.366;12.348;2023-02-22T01:54:47;7.80;99.90
18191;DHT22;47004;51.366;12.348;2023-02-22T01:56:56;7.70;99.90
18191;DHT22;47004;51.366;12.348;2023-02-22T01:59:02;7.80;99.90
18191;DHT22;47004;51.366;12.348;2023-02-22T02:01:06;7.70;99.90
18191;DHT22;47004;51.366;12.348;2023-02-22T02:03:10;7.60;99.90
18191;DHT22;47004;51.366;12.348;2023-02-22T02:05:16;7.60;99.90
18191;DHT22;47004;51.366;12.348;2023-02-22T02:07:19;7.60;99.90
18191;DHT22;47004;51.366;12.348;2023-02-22T02:09:30;7.50;99.90
18191;DHT22;47004;51.366;12.348;2023-02-22T02:11:34;7.50;99.90
18191;DHT22;47004;51.366;12.348;2023-02-22T02:13:36;7.40;99.90
18191;DHT22;47004;51.366;12.348;2023-02-22T02:15:38;7.50;99.90
18191;DHT22;47004;51.366;12.348;2023-02-22T02:17:40;7.40;99.90
18191;DHT22;47004;51.366;12.348;2023-02-22T02:19:49;7.30;99.90
18191;DHT22;47004;51.366;12.348;2023-02-22T02:22:12;7.30;99.90
18191;DHT22;47004;51.366;12.348;2023-02-22T02:24:48;7.30;99.90
18191;DHT22;47004;51.366;12.348;2023-02-22T02:27:03;7.20;99.90
18191;DHT22;47004;51.366;12.348;2023-02-22T02:29:27;7.20;99.90
18191;DHT22;47004;51.366;12.348;2023-02-22T02:34:14;7.10;99.90
18191;DHT22;47004;51.366;12.348;2023-02-22T02:36:19;7.10;99.90
18191;DHT22;47004;51.366;12.348;2023-02-22T02:38:31;7.00;99.90
18191;DHT22;47004;51.366;12.348;2023-02-22T02:40:40;7.00;99.90
18191;DHT22;47004;51.366;12.348;2023-02-22T02:42:52;6.90;99.90
18191;DHT22;47004;51.366;12.348;2023-02-22T02:45:02;6.90;99.90
18191;DHT22;47004;51.366;12.348;2023-02-22T02:47:09;6.90;99.90
18191;DHT22;47004;51.366;12.348;2023-02-22T02:49:18;6.90;99.90
18191;DHT22;47004;51.366;12.348;2023-02-22T02:51:29;6.80;99.90
18191;DHT22;47004;51.366;12.348;2023-02-22T02:53:35;6.80;99.90
18191;DHT22;47004;51.366;12.348;2023-02-22T02:55:38;6.80;99.90
18191;DHT22;47004;51.366;12.348;2023-02-22T02:57:40;6.80;99.90
18191;DHT22;47004;51.366;12.348;2023-02-22T02:59:42;6.80;99.90
18191;DHT22;47004;51.366;12.348;2023-02-22T03:01:50;6.80;99.90
18191;DHT22;47004;51.366;12.348;2023-02-22T03:04:12;6.80;99.90
18191;DHT22;47004;51.366;12.348;2023-02-22T03:08:57;6.80;99.90
18191;DHT22;47004;51.366;12.348;2023-02-22T03:11:05;6.80;99.90
18191;DHT22;47004;51.366;12.348;2023-02-22T03:13:18;6.90;99.90
18191;DHT22;47004;51.366;12.348;2023-02-22T03:15:32;6.90;99.90
18191;DHT22;47004;51.366;12.348;2023-02-22T03:17:51;6.90;99.90
18191;DHT22;47004;51.366;12.348;2023-02-22T03:19:58;6.90;99.90
18191;DHT22;47004;51.366;12.348;2023-02-22T03:22:09;6.90;99.90
18191;DHT22;47004;51.366;12.348;2023-02-22T03:24:17;6.90;99.90
18191;DHT22;47004;51.366;12.348;2023-02-22T03:26:24;7.00;99.90
18191;DHT22;47004;51.366;12.348;2023-02-22T03:28:29;7.00;99.90
18191;DHT22;47004;51.366;12.348;2023-02-22T03:30:33;7.10;99.90
18191;DHT22;47004;51.366;12.348;2023-02-22T03:32:40;7.00;99.90
18191;DHT22;47004;51.366;12.348;2023-02-22T03:34:47;7.00;99.90
18191;DHT22;47004;51.366;12.348;2023-02-22T03:36:55;7.10;99.90
18191;DHT22;47004;51.366;12.348;2023-02-22T03:39:00;7.10;99.90
18191;DHT22;47004;51.366;12.348;2023-02-22T03:41:04;7.10;99.90
18191;DHT22;47004;51.366;12.348;2023-02-22T03:43:11;7.10;99.90
18191;DHT22;47004;51.366;12.348;2023-02-22T03:45:16;7.10;99.90
18191;DHT22;47004;51.366;12.348;2023-02-22T03:47:23;7.20;99.90
18191;DHT22;47004;51.366;12.348;2023-02-22T03:49:34;7.20;99.90
18191;DHT22;47004;51.366;12.348;2023-02-22T03:51:37;7.20;99.90
18191;DHT22;47004;51.366;12.348;2023-02-22T03:53:40;7.20;99.90
18191;DHT22;47004;51.366;12.348;2023-02-22T03:55:46;7.20;99.90
18191;DHT22;47004;51.366;12.348;2023-02-22T03:57:55;7.20;99.90
18191;DHT22;47004;51.366;12.348;2023-02-22T03:59:58;7.20;99.90
18191;DHT22;47004;51.366;12.348;2023-02-22T04:02:00;7.30;99.90
18191;DHT22;47004;51.366;12.348;2023-02-22T04:04:03;7.30;99.90
18191;DHT22;47004;51.366;12.348;2023-02-22T04:06:05;7.30;99.90
18191;DHT22;47004;51.366;12.348;2023-02-22T04:08:07;7.30;99.90
18191;DHT22;47004;51.366;12.348;2023-02-22T04:10:09;7.30;99.90
18191;DHT22;47004;51.366;12.348;2023-02-22T04:12:13;7.30;99.90
18191;DHT22;47004;51.366;12.348;2023-02-22T04:14:15;7.30;99.90
18191;DHT22;47004;51.366;12.348;2023-02-22T04:16:17;7.30;99.90
18191;DHT22;47004;51.366;12.348;2023-02-22T04:18:19;7.40;99.90
18191;DHT22;47004;51.366;12.348;2023-02-22T04:20:21;7.40;99.90
18191;DHT22;47004;51.366;12.348;2023-02-22T04:22:25;7.40;99.90
18191;DHT22;47004;51.366;12.348;2023-02-22T04:24:26;7.40;99.90
18191;DHT22;47004;51.366;12.348;2023-02-22T04:26:28;7.40;99.90
18191;DHT22;47004;51.366;12.348;2023-02-22T04:28:32;7.40;99.90
18191;DHT22;47004;51.366;12.348;2023-02-22T04:30:34;7.40;99.90
18191;DHT22;47004;51.366;12.348;2023-02-22T04:32:35;7.50;99.90
18191;DHT22;47004;51.366;12.348;2023-02-22T04:34:37;7.40;99.90
18191;DHT22;47004;51.366;12.348;2023-02-22T04:36:39;7.40;99.90
18191;DHT22;47004;51.366;12.348;2023-02-22T04:38:44;7.40;99.90
18191;DHT22;47004;51.366;12.348;2023-02-22T04:40:46;7.40;99.90
18191;DHT22;47004;51.366;12.348;2023-02-22T04:42:48;7.40;99.90
18191;DHT22;47004;51.366;12.348;2023-02-22T04:44:51;7.50;99.90
18191;DHT22;47004;51.366;12.348;2023-02-22T04:46:53;7.50;99.90
18191;DHT22;47004;51.366;12.348;2023-02-22T04:48:56;7.40;99.90
18191;DHT22;47004;51.366;12.348;2023-02-22T04:50:58;7.50;99.90
18191;DHT22;47004;51.366;12.348;2023-02-22T04:53:00;7.50;99.90
18191;DHT22;47004;51.366;12.348;2023-02-22T04:55:03;7.50;99.90
18191;DHT22;47004;51.366;12.348;2023-02-22T04:57:05;7.50;99.90
18191;DHT22;47004;51.366;12.348;2023-02-22T04:59:07;7.50;99.90
18191;DHT22;47004;51.366;12.348;2023-02-22T05:01:10;7.50;99.90
18191;DHT22;47004;51.366;12.348;2023-02-22T05:03:12;7.50;99.90
18191;DHT22;47004;51.366;12.348;2023-02-22T05:05:15;7.50;99.90
18191;DHT22;47004;51.366;12.348;2023-02-22T05:07:17;7.50;99.90
18191;DHT22;47004;51.366;12.348;2023-02-22T05:09:19;7.60;99.90
18191;DHT22;47004;51.366;12.348;2023-02-22T05:11:21;7.60;99.90
18191;DHT22;47004;51.366;12.348;2023-02-22T05:13:23;7.60;99.90
18191;DHT22;47004;51.366;12.348;2023-02-22T05:15:25;7.60;99.90
18191;DHT22;47004;51.366;12.348;2023-02-22T05:17:28;7.60;99.90
18191;DHT22;47004;51.366;12.348;2023-02-22T05:19:30;7.60;99.90
18191;DHT22;47004;51.366;12.348;2023-02-22T05:21:32;7.60;99.90
18191;DHT22;47004;51.366;12.348;2023-02-22T05:23:34;7.60;99.90
18191;DHT22;47004;51.366;12.348;2023-02-22T05:25:36;7.60;99.90
18191;DHT22;47004;51.366;12.348;2023-02-22T05:27:38;7.60;99.90
18191;DHT22;47004;51.366;12.348;2023-02-22T05:29:40;7.60;99.90
18191;DHT22;47004;51.366;12.348;2023-02-22T05:31:42;7.60;99.90
18191;DHT22;47004;51.366;12.348;2023-02-22T05:33:45;7.70;99.90
18191;DHT22;47004;51.366;12.348;2023-02-22T05:35:50;7.70;99.90
18191;DHT22;47004;51.366;12.348;2023-02-22T05:37:52;7.70;99.90
18191;DHT22;47004;51.366;12.348;2023-02-22T05:39:54;7.70;99.90
18191;DHT22;47004;51.366;12.348;2023-02-22T05:41:56;7.70;99.90
18191;DHT22;47004;51.366;12.348;2023-02-22T05:43:58;7.70;99.90
18191;DHT22;47004;51.366;12.348;2023-02-22T05:46:02;7.70;99.90
18191;DHT22;47004;51.366;12.348;2023-02-22T05:48:04;7.70;99.90
18191;DHT22;47004;51.366;12.348;2023-02-22T05:50:08;7.70;99.90
18191;DHT22;47004;51.366;12.348;2023-02-22T05:52:10;7.70;99.90
18191;DHT22;47004;51.366;12.348;2023-02-22T05:54:12;7.70;99.90
18191;DHT22;47004;51.366;12.348;2023-02-22T05:56:19;7.80;99.90
18191;DHT22;47004;51.366;12.348;2023-02-22T05:58:21;7.80;99.90
18191;DHT22;47004;51.366;12.348;2023-02-22T06:00:26;7.80;99.90
18191;DHT22;47004;51.366;12.348;2023-02-22T06:02:28;7.80;99.90
18191;DHT22;47004;51.366;12.348;2023-02-22T06:04:30;7.80;99.90
18191;DHT22;47004;51.366;12.348;2023-02-22T06:06:34;7.80;99.90
18191;DHT22;47004;51.366;12.348;2023-02-22T06:08:36;7.80;99.90
18191;DHT22;47004;51.366;12.348;2023-02-22T06:10:38;7.80;99.90
18191;DHT22;47004;51.366;12.348;2023-02-22T06:12:40;7.80;99.90
18191;DHT22;47004;51.366;12.348;2023-02-22T06:14:42;7.80;99.90
18191;DHT22;47004;51.366;12.348;2023-02-22T06:16:54;7.80;99.90
18191;DHT22;47004;51.366;12.348;2023-02-22T06:18:57;7.80;99.90
18191;DHT22;47004;51.366;12.348;2023-02-22T06:20:59;7.90;99.90
18191;DHT22;47004;51.366;12.348;2023-02-22T06:23:02;7.80;99.90
18191;DHT22;47004;51.366;12.348;2023-02-22T06:25:05;7.90;99.90
18191;DHT22;47004;51.366;12.348;2023-02-22T06:27:07;7.90;99.90
18191;DHT22;47004;51.366;12.348;2023-02-22T06:29:09;7.90;99.90
18191;DHT22;47004;51.366;12.348;2023-02-22T06:31:11;7.90;99.90
18191;DHT22;47004;51.366;12.348;2023-02-22T06:33:14;7.90;99.90
18191;DHT22;47004;51.366;12.348;2023-02-22T06:35:16;7.90;99.90
18191;DHT22;47004;51.366;12.348;2023-02-22T06:37:18;7.90;99.90
18191;DHT22;47004;51.366;12.348;2023-02-22T06:39:21;7.90;99.90
18191;DHT22;47004;51.366;12.348;2023-02-22T06:41:25;8.00;99.90
18191;DHT22;47004;51.366;12.348;2023-02-22T06:43:27;8.00;99.90
18191;DHT22;47004;51.366;12.348;2023-02-22T06:45:28;8.00;99.90
18191;DHT22;47004;51.366;12.348;2023-02-22T06:47:30;8.00;99.90
18191;DHT22;47004;51.366;12.348;2023-02-22T06:49:32;8.00;99.90
18191;DHT22;47004;51.366;12.348;2023-02-22T06:51:36;8.00;99.90
18191;DHT22;47004;51.366;12.348;2023-02-22T06:53:41;8.00;99.90
18191;DHT22;47004;51.366;12.348;2023-02-22T06:55:44;8.10;99.90
18191;DHT22;47004;51.366;12.348;2023-02-22T06:57:47;8.10;99.90
18191;DHT22;47004;51.366;12.348;2023-02-22T06:59:49;8.10;99.90
18191;DHT22;47004;51.366;12.348;2023-02-22T07:01:51;8.10;99.90
18191;DHT22;47004;51.366;12.348;2023-02-22T07:03:53;8.10;99.90
18191;DHT22;47004;51.366;12.348;2023-02-22T07:05:55;8.10;99.90
18191;DHT22;47004;51.366;12.348;2023-02-22T07:08:02;8.20;99.90
18191;DHT22;47004;51.366;12.348;2023-02-22T07:10:05;8.10;99.90
18191;DHT22;47004;51.366;12.348;2023-02-22T07:12:12;8.20;99.90
18191;DHT22;47004;51.366;12.348;2023-02-22T07:14:15;8.20;99.90
18191;DHT22;47004;51.366;12.348;2023-02-22T07:16:18;8.20;99.90
18191;DHT22;47004;51.366;12.348;2023-02-22T07:18:19;8.20;99.90
18191;DHT22;47004;51.366;12.348;2023-02-22T07:20:23;8.30;99.90
18191;DHT22;47004;51.366;12.348;2023-02-22T07:22:25;8.30;99.90
18191;DHT22;47004;51.366;12.348;2023-02-22T07:24:27;8.30;99.90
18191;DHT22;47004;51.366;12.348;2023-02-22T07:26:29;8.40;99.90
18191;DHT22;47004;51.366;12.348;2023-02-22T07:28:32;8.40;99.90
18191;DHT22;47004;51.366;12.348;2023-02-22T07:30:34;8.40;99.90
18191;DHT22;47004;51.366;12.348;2023-02-22T07:32:36;8.40;99.90
18191;DHT22;47004;51.366;12.348;2023-02-22T07:34:40;8.40;99.90
18191;DHT22;47004;51.366;12.348;2023-02-22T07:36:42;8.50;99.90
18191;DHT22;47004;51.366;12.348;2023-02-22T07:38:44;8.50;99.90
18191;DHT22;47004;51.366;12.348;2023-02-22T07:40:46;8.50;99.90
18191;DHT22;47004;51.366;12.348;2023-02-22T07:42:53;8.50;99.90
18191;DHT22;47004;51.366;12.348;2023-02-22T07:44:56;8.50;99.90
18191;DHT22;47004;51.366;12.348;2023-02-22T07:46:58;8.60;99.90
18191;DHT22;47004;51.366;12.348;2023-02-22T07:49:02;8.60;99.90
18191;DHT22;47004;51.366;12.348;2023-02-22T07:51:04;8.60;99.90
18191;DHT22;47004;51.366;12.348;2023-02-22T07:53:10;8.60;99.90
18191;DHT22;47004;51.366;12.348;2023-02-22T07:55:13;8.70;99.90
18191;DHT22;47004;51.366;12.348;2023-02-22T07:57:16;8.70;99.90
18191;DHT22;47004;51.366;12.348;2023-02-22T07:59:18;8.70;99.90
18191;DHT22;47004;51.366;12.348;2023-02-22T08:01:22;8.80;99.90
18191;DHT22;47004;51.366;12.348;2023-02-22T08:03:25;8.80;99.90
18191;DHT22;47004;51.366;12.348;2023-02-22T08:05:28;8.80;99.90
18191;DHT22;47004;51.366;12.348;2023-02-22T08:07:30;8.80;99.90
18191;DHT22;47004;51.366;12.348;2023-02-22T08:09:32;8.80;99.90
18191;DHT22;47004;51.366;12.348;2023-02-22T08:11:34;8.90;99.90
18191;DHT22;47004;51.366;12.348;2023-02-22T08:13:37;8.90;99.90
18191;DHT22;47004;51.366;12.348;2023-02-22T08:15:40;8.90;99.90
18191;DHT22;47004;51.366;12.348;2023-02-22T08:17:45;8.90;99.90
18191;DHT22;47004;51.366;12.348;2023-02-22T08:19:47;8.90;99.90
18191;DHT22;47004;51.366;12.348;2023-02-22T08:21:48;9.00;99.90
18191;DHT22;47004;51.366;12.348;2023-02-22T08:23:51;9.00;99.90
18191;DHT22;47004;51.366;12.348;2023-02-22T08:25:54;9.00;99.90
18191;DHT22;47004;51.366;12.348;2023-02-22T08:27:58;9.10;99.90
18191;DHT22;47004;51.366;12.348;2023-02-22T08:30:00;9.10;99.90
18191;DHT22;47004;51.366;12.348;2023-02-22T08:32:03;9.10;99.90
18191;DHT22;47004;51.366;12.348;2023-02-22T08:34:06;9.20;99.90
18191;DHT22;47004;51.366;12.348;2023-02-22T08:36:08;9.20;99.90
18191;DHT22;47004;51.366;12.348;2023-02-22T08:38:16;9.20;99.90
18191;DHT22;47004;51.366;12.348;2023-02-22T08:40:20;9.30;99.90
18191;DHT22;47004;51.366;12.348;2023-02-22T08:42:22;9.30;99.90
18191;DHT22;47004;51.366;12.348;2023-02-22T08:44:24;9.30;99.90
18191;DHT22;47004;51.366;12.348;2023-02-22T08:46:26;9.40;99.90
18191;DHT22;47004;51.366;12.348;2023-02-22T08:48:28;9.40;99.90
18191;DHT22;47004;51.366;12.348;2023-02-22T08:50:32;9.50;99.90
18191;DHT22;47004;51.366;12.348;2023-02-22T08:52:35;9.40;99.90
18191;DHT22;47004;51.366;12.348;2023-02-22T08:54:37;9.50;99.90
18191;DHT22;47004;51.366;12.348;2023-02-22T08:56:39;9.60;99.90
18191;DHT22;47004;51.366;12.348;2023-02-22T08:58:41;9.60;99.90
18191;DHT22;47004;51.366;12.348;2023-02-22T09:00:42;9.70;99.90
18191;DHT22;47004;51.366;12.348;2023-02-22T09:02:45;9.70;99.90
18191;DHT22;47004;51.366;12.348;2023-02-22T09:04:47;9.70;99.90
18191;DHT22;47004;51.366;12.348;2023-02-22T09:06:51;9.80;99.90
18191;DHT22;47004;51.366;12.348;2023-02-22T09:08:53;9.80;99.90
18191;DHT22;47004;51.366;12.348;2023-02-22T09:10:55;9.90;99.90
18191;DHT22;47004;51.366;12.348;2023-02-22T09:12:57;9.90;99.90
18191;DHT22;47004;51.366;12.348;2023-02-22T09:15:01;9.90;99.90
18191;DHT22;47004;51.366;12.348;2023-02-22T09:17:03;9.90;99.90
18191;DHT22;47004;51.366;12.348;2023-02-22T09:19:05;9.90;99.90
18191;DHT22;47004;51.366;12.348;2023-02-22T09:21:07;10.00;99.90
18191;DHT22;47004;51.366;12.348;2023-02-22T09:23:11;10.00;99.90
18191;DHT22;47004;51.366;12.348;2023-02-22T09:25:14;10.10;99.90
18191;DHT22;47004;51.366;12.348;2023-02-22T09:27:17;10.10;99.90
18191;DHT22;47004;51.366;12.348;2023-02-22T09:29:19;10.10;99.90
18191;DHT22;47004;51.366;12.348;2023-02-22T09:31:25;10.20;99.90
18191;DHT22;47004;51.366;12.348;2023-02-22T09:33:27;10.20;99.90
18191;DHT22;47004;51.366;12.348;2023-02-22T09:35:29;10.30;99.90
18191;DHT22;47004;51.366;12.348;2023-02-22T09:37:31;10.30;99.90
18191;DHT22;47004;51.366;12.348;2023-02-22T09:39:36;10.30;99.90
18191;DHT22;47004;51.366;12.348;2023-02-22T09:41:45;10.40;99.90
18191;DHT22;47004;51.366;12.348;2023-02-22T09:43:55;10.40;99.90
18191;DHT22;47004;51.366;12.348;2023-02-22T09:46:12;10.40;99.90
18191;DHT22;47004;51.366;12.348;2023-02-22T09:48:18;10.50;99.90
18191;DHT22;47004;51.366;12.348;2023-02-22T09:50:22;10.50;99.90
18191;DHT22;47004;51.366;12.348;2023-02-22T09:52:27;10.60;99.90
18191;DHT22;47004;51.366;12.348;2023-02-22T09:54:37;10.60;99.90
18191;DHT22;47004;51.366;12.348;2023-02-22T09:56:40;10.60;99.90
18191;DHT22;47004;51.366;12.348;2023-02-22T09:58:45;10.70;99.90
18191;DHT22;47004;51.366;12.348;2023-02-22T10:00:50;10.80;99.90
18191;DHT22;47004;51.366;12.348;2023-02-22T10:03:04;10.80;99.90
18191;DHT22;47004;51.366;12.348;2023-02-22T10:05:14;10.90;99.90
18191;DHT22;47004;51.366;12.348;2023-02-22T10:07:22;11.00;99.90
18191;DHT22;47004;51.366;12.348;2023-02-22T10:09:26;11.00;99.90
18191;DHT22;47004;51.366;12.348;2023-02-22T10:11:43;11.00;99.90
18191;DHT22;47004;51.366;12.348;2023-02-22T10:13:56;11.10;99.90
18191;DHT22;47004;51.366;12.348;2023-02-22T10:16:06;11.10;99.90
18191;DHT22;47004;51.366;12.348;2023-02-22T10:21:15;11.20;99.90
18191;DHT22;47004;51.366;12.348;2023-02-22T10:23:24;11.30;99.90
18191;DHT22;47004;51.366;12.348;2023-02-22T10:25:34;11.40;99.90
18191;DHT22;47004;51.366;12.348;2023-02-22T10:27:40;11.40;99.90
18191;DHT22;47004;51.366;12.348;2023-02-22T10:29:46;11.40;99.90
18191;DHT22;47004;51.366;12.348;2023-02-22T10:31:54;11.50;99.90
18191;DHT22;47004;51.366;12.348;2023-02-22T10:34:00;11.60;99.90
18191;DHT22;47004;51.366;12.348;2023-02-22T10:36:02;11.50;99.90
18191;DHT22;47004;51.366;12.348;2023-02-22T10:38:13;11.70;99.90
18191;DHT22;47004;51.366;12.348;2023-02-22T10:40:18;11.80;99.90
18191;DHT22;47004;51.366;12.348;2023-02-22T10:42:25;11.80;99.90
18191;DHT22;47004;51.366;12.348;2023-02-22T10:44:28;11.90;99.90
18191;DHT22;47004;51.366;12.348;2023-02-22T10:46:32;12.00;99.90
18191;DHT22;47004;51.366;12.348;2023-02-22T10:48:36;12.00;99.90
18191;DHT22;47004;51.366;12.348;2023-02-22T10:50:40;12.10;99.90
18191;DHT22;47004;51.366;12.348;2023-02-22T10:52:43;12.20;99.90
18191;DHT22;47004;51.366;12.348;2023-02-22T10:54:47;12.20;99.90
18191;DHT22;47004;51.366;12.348;2023-02-22T10:56:52;12.30;99.90
18191;DHT22;47004;51.366;12.348;2023-02-22T10:58:57;12.40;99.90
18191;DHT22;47004;51.366;12.348;2023-02-22T11:01:18;12.50;99.90
18191;DHT22;47004;51.366;12.348;2023-02-22T11:03:21;12.60;99.90
18191;DHT22;47004;51.366;12.348;2023-02-22T11:05:33;12.60;99.90
18191;DHT22;47004;51.366;12.348;2023-02-22T11:07:36;12.70;99.90
18191;DHT22;47004;51.366;12.348;2023-02-22T11:09:46;12.80;99.90
18191;DHT22;47004;51.366;12.348;2023-02-22T11:12:07;12.90;99.90
18191;DHT22;47004;51.366;12.348;2023-02-22T11:14:10;12.90;99.90
18191;DHT22;47004;51.366;12.348;2023-02-22T11:16:19;13.00;99.90
18191;DHT22;47004;51.366;12.348;2023-02-22T11:18:24;13.10;99.90
18191;DHT22;47004;51.366;12.348;2023-02-22T11:20:29;13.20;99.90
18191;DHT22;47004;51.366;12.348;2023-02-22T11:22:38;13.30;99.90
18191;DHT22;47004;51.366;12.348;2023-02-22T11:24:46;13.30;99.90
18191;DHT22;47004;51.366;12.348;2023-02-22T11:26:52;13.40;99.90
18191;DHT22;47004;51.366;12.348;2023-02-22T11:28:55;13.40;99.90
18191;DHT22;47004;51.366;12.348;2023-02-22T11:31:09;13.50;99.90
18191;DHT22;47004;51.366;12.348;2023-02-22T11:33:17;13.50;99.90
18191;DHT22;47004;51.366;12.348;2023-02-22T11:35:35;13.60;99.90
18191;DHT22;47004;51.366;12.348;2023-02-22T11:37:38;13.70;99.90
18191;DHT22;47004;51.366;12.348;2023-02-22T11:39:40;13.70;99.90
18191;DHT22;47004;51.366;12.348;2023-02-22T11:41:43;13.80;99.90
18191;DHT22;47004;51.366;12.348;2023-02-22T11:43:46;13.90;99.90
18191;DHT22;47004;51.366;12.348;2023-02-22T11:45:58;13.90;99.90
18191;DHT22;47004;51.366;12.348;2023-02-22T11:48:04;14.00;99.90
18191;DHT22;47004;51.366;12.348;2023-02-22T11:50:16;14.00;99.90
18191;DHT22;47004;51.366;12.348;2023-02-22T11:52:24;14.00;99.90
18191;DHT22;47004;51.366;12.348;2023-02-22T11:55:07;14.10;99.90
18191;DHT22;47004;51.366;12.348;2023-02-22T11:57:32;14.10;99.90
18191;DHT22;47004;51.366;12.348;2023-02-22T11:59:39;14.20;99.90
18191;DHT22;47004;51.366;12.348;2023-02-22T12:01:47;14.30;99.90
18191;DHT22;47004;51.366;12.348;2023-02-22T12:04:21;14.40;99.90
18191;DHT22;47004;51.366;12.348;2023-02-22T12:06:43;14.40;99.90
18191;DHT22;47004;51.366;12.348;2023-02-22T12:08:57;14.50;99.90
18191;DHT22;47004;51.366;12.348;2023-02-22T12:11:05;14.60;99.90
18191;DHT22;47004;51.366;12.348;2023-02-22T12:13:21;14.60;99.90
18191;DHT22;47004;51.366;12.348;2023-02-22T12:15:29;14.70;99.90
18191;DHT22;47004;51.366;12.348;2023-02-22T12:17:41;14.80;99.90
18191;DHT22;47004;51.366;12.348;2023-02-22T12:19:48;14.90;99.90
18191;DHT22;47004;51.366;12.348;2023-02-22T12:21:56;15.00;99.90
18191;DHT22;47004;51.366;12.348;2023-02-22T12:24:03;15.00;99.90
18191;DHT22;47004;51.366;12.348;2023-02-22T12:26:09;15.00;99.90
18191;DHT22;47004;51.366;12.348;2023-02-22T12:28:18;15.10;99.90
18191;DHT22;47004;51.366;12.348;2023-02-22T12:30:23;15.20;99.90
18191;DHT22;47004;51.366;12.348;2023-02-22T12:32:33;15.30;99.90
18191;DHT22;47004;51.366;12.348;2023-02-22T12:34:44;15.50;99.90
18191;DHT22;47004;51.366;12.348;2023-02-22T12:36:50;15.60;99.90
18191;DHT22;47004;51.366;12.348;2023-02-22T12:38:59;15.80;99.90
18191;DHT22;47004;51.366;12.348;2023-02-22T12:41:10;15.90;99.90
18191;DHT22;47004;51.366;12.348;2023-02-22T12:43:18;16.00;99.90
18191;DHT22;47004;51.366;12.348;2023-02-22T12:45:28;16.20;99.90
18191;DHT22;47004;51.366;12.348;2023-02-22T12:47:35;16.30;99.90
18191;DHT22;47004;51.366;12.348;2023-02-22T12:49:40;16.50;99.90
18191;DHT22;47004;51.366;12.348;2023-02-22T12:51:48;16.70;99.90
18191;DHT22;47004;51.366;12.348;2023-02-22T12:54:00;17.00;99.90
18191;DHT22;47004;51.366;12.348;2023-02-22T12:56:15;17.10;99.90
18191;DHT22;47004;51.366;12.348;2023-02-22T12:58:23;17.30;99.90
18191;DHT22;47004;51.366;12.348;2023-02-22T13:00:29;17.40;99.90
18191;DHT22;47004;51.366;12.348;2023-02-22T13:02:38;17.50;99.90
18191;DHT22;47004;51.366;12.348;2023-02-22T13:04:43;17.60;99.90
18191;DHT22;47004;51.366;12.348;2023-02-22T13:06:58;17.60;99.90
18191;DHT22;47004;51.366;12.348;2023-02-22T13:09:17;17.60;99.90
18191;DHT22;47004;51.366;12.348;2023-02-22T13:11:28;17.70;99.90
18191;DHT22;47004;51.366;12.348;2023-02-22T13:13:40;17.70;99.90
18191;DHT22;47004;51.366;12.348;2023-02-22T13:15:51;17.80;99.90
18191;DHT22;47004;51.366;12.348;2023-02-22T13:18:04;17.90;99.90